sensor_id;sensor_type;location;lat;lon;timestamp;temperature;humidity
12827;DHT22;66927;48.812;9.118;2023-04-03T00:01:31;5.30;99.90
12827;DHT22;66927;48.812;9.118;2023-04-03T00:03:57;5.30;99.90
12827;DHT22;66927;48.812;9.118;2023-04-03T00:06:25;5.40;99.90
12827;DHT22;66927;48.812;9.118;2023-04-03T00:08:51;5.30;99.90
12827;DHT22;66927;48.812;9.118;2023-04-03T00:11:18;5.20;99.90
12827;DHT22;66927;48.812;9.118;2023-04-03T00:13:44;5.20;99.90
12827;DHT22;66927;48.812;9.118;2023-04-03T00:16:11;5.20;99.90
12827;DHT22;66927;48.812;9.118;2023-04-03T00:18:37;5.20;99.90
12827;DHT22;66927;48.812;9.118;2023-04-03T00:21:04;5.10;99.90
12827;DHT22;66927;48.812;9.118;2023-04-03T00:23:31;5.10;99.90
12827;DHT22;66927;48.812;9.118;2023-04-03T00:25:56;5.10;99.90
12827;DHT22;66927;48.812;9.118;2023-04-03T00:28:22;5.10;99.90
12827;DHT22;66927;48.812;9.118;2023-04-03T00:30:51;5.20;99.90
12827;DHT22;66927;48.812;9.118;2023-04-03T00:33:17;5.20;99.90
12827;DHT22;66927;48.812;9.118;2023-04-03T00:35:43;5.20;99.90
12827;DHT22;66927;48.812;9.118;2023-04-03T00:38:08;5.10;99.90
12827;DHT22;66927;48.812;9.118;2023-04-03T00:40:38;5.20;99.90
12827;DHT22;66927;48.812;9.118;2023-04-03T00:43:14;5.10;99.90
12827;DHT22;66927;48.812;9.118;2023-04-03T00:45:43;5.10;99.90
12827;DHT22;66927;48.812;9.118;2023-04-03T00:48:13;5.00;99.90
12827;DHT22;66927;48.812;9.118;2023-04-03T00:50:41;5.00;99.90
12827;DHT22;66927;48.812;9.118;2023-04-03T00:53:16;5.00;99.90
12827;DHT22;66927;48.812;9.118;2023-04-03T00:55:43;5.00;99.90
12827;DHT22;66927;48.812;9.118;2023-04-03T00:58:10;5.00;99.90
12827;DHT22;66927;48.812;9.118;2023-04-03T01:00:39;5.00;99.90
12827;DHT22;66927;48.812;9.118;2023-04-03T01:03:06;5.00;99.90
12827;DHT22;66927;48.812;9.118;2023-04-03T01:05:31;5.00;99.90
12827;DHT22;66927;48.812;9.118;2023-04-03T01:07:58;5.00;99.90
12827;DHT22;66927;48.812;9.118;2023-04-03T01:10:24;4.80;99.90
12827;DHT22;66927;48.812;9.118;2023-04-03T01:12:50;4.80;99.90
12827;DHT22;66927;48.812;9.118;2023-04-03T01:15:22;4.90;99.90
12827;DHT22;66927;48.812;9.118;2023-04-03T01:17:51;4.90;99.90
12827;DHT22;66927;48.812;9.118;2023-04-03T01:28:07;4.90;99.90
12827;DHT22;66927;48.812;9.118;2023-04-03T01:30:35;4.80;99.90
12827;DHT22;66927;48.812;9.118;2023-04-03T01:33:03;4.80;99.90
12827;DHT22;66927;48.812;9.118;2023-04-03T01:35:28;4.80;99.90
12827;DHT22;66927;48.812;9.118;2023-04-03T01:37:54;4.70;99.90
12827;DHT22;66927;48.812;9.118;2023-04-03T01:40:20;4.70;99.90
12827;DHT22;66927;48.812;9.118;2023-04-03T01:42:45;4.80;99.90
12827;DHT22;66927;48.812;9.118;2023-04-03T01:45:11;4.60;99.90
12827;DHT22;66927;48.812;9.118;2023-04-03T01:47:37;4.70;99.90
12827;DHT22;66927;48.812;9.118;2023-04-03T01:50:02;4.70;99.90
12827;DHT22;66927;48.812;9.118;2023-04-03T01:52:28;4.70;99.90
12827;DHT22;66927;48.812;9.118;2023-04-03T01:54:55;4.70;99.90
12827;DHT22;66927;48.812;9.118;2023-04-03T01:57:21;4.70;99.90
12827;DHT22;66927;48.812;9.118;2023-04-03T01:59:46;4.80;99.90
12827;DHT22;66927;48.812;9.118;2023-04-03T02:02:12;4.90;99.90
12827;DHT22;66927;48.812;9.118;2023-04-03T02:04:40;4.80;99.90
12827;DHT22;66927;48.812;9.118;2023-04-03T02:07:06;4.80;99.90
12827;DHT22;66927;48.812;9.118;2023-04-03T02:09:32;4.90;99.90
12827;DHT22;66927;48.812;9.118;2023-04-03T02:11:57;4.70;99.90
12827;DHT22;66927;48.812;9.118;2023-04-03T02:14:23;4.80;99.90
12827;DHT22;66927;48.812;9.118;2023-04-03T02:16:49;4.70;99.90
12827;DHT22;66927;48.812;9.118;2023-04-03T02:19:15;4.80;99.90
12827;DHT22;66927;48.812;9.118;2023-04-03T02:21:41;4.70;99.90
12827;DHT22;66927;48.812;9.118;2023-04-03T02:24:07;4.70;99.90
12827;DHT22;66927;48.812;9.118;2023-04-03T02:26:32;4.70;99.90
12827;DHT22;66927;48.812;9.118;2023-04-03T02:28:58;4.60;99.90
12827;DHT22;66927;48.812;9.118;2023-04-03T02:31:23;4.70;99.90
12827;DHT22;66927;48.812;9.118;2023-04-03T02:33:49;4.60;99.90
12827;DHT22;66927;48.812;9.118;2023-04-03T02:36:15;4.70;99.90
12827;DHT22;66927;48.812;9.118;2023-04-03T02:38:41;4.70;99.90
12827;DHT22;66927;48.812;9.118;2023-04-03T02:41:09;4.70;99.90
12827;DHT22;66927;48.812;9.118;2023-04-03T02:43:35;4.70;99.90
12827;DHT22;66927;48.812;9.118;2023-04-03T02:46:01;4.60;99.90
12827;DHT22;66927;48.812;9.118;2023-04-03T02:48:27;4.70;99.90
12827;DHT22;66927;48.812;9.118;2023-04-03T02:50:53;4.80;99.90
12827;DHT22;66927;48.812;9.118;2023-04-03T02:53:19;4.60;99.90
12827;DHT22;66927;48.812;9.118;2023-04-03T02:55:45;4.60;99.90
12827;DHT22;66927;48.812;9.118;2023-04-03T02:58:11;4.60;99.90
12827;DHT22;66927;48.812;9.118;2023-04-03T03:00:37;4.60;99.90
12827;DHT22;66927;48.812;9.118;2023-04-03T03:03:03;4.80;99.90
12827;DHT22;66927;48.812;9.118;2023-04-03T03:05:29;4.70;99.90
12827;DHT22;66927;48.812;9.118;2023-04-03T03:07:55;4.70;99.90
12827;DHT22;66927;48.812;9.118;2023-04-03T03:10:22;4.80;99.90
12827;DHT22;66927;48.812;9.118;2023-04-03T03:12:48;4.80;99.90
12827;DHT22;66927;48.812;9.118;2023-04-03T03:15:13;4.80;99.90
12827;DHT22;66927;48.812;9.118;2023-04-03T03:17:40;4.70;99.90
12827;DHT22;66927;48.812;9.118;2023-04-03T03:20:07;4.60;99.90
12827;DHT22;66927;48.812;9.118;2023-04-03T03:22:33;4.60;99.90
12827;DHT22;66927;48.812;9.118;2023-04-03T03:24:59;4.50;99.90
12827;DHT22;66927;48.812;9.118;2023-04-03T03:27:24;4.60;99.90
12827;DHT22;66927;48.812;9.118;2023-04-03T03:29:50;4.60;99.90
12827;DHT22;66927;48.812;9.118;2023-04-03T03:32:16;4.70;99.90
12827;DHT22;66927;48.812;9.118;2023-04-03T03:34:41;4.60;99.90
12827;DHT22;66927;48.812;9.118;2023-04-03T03:37:07;4.60;99.90
12827;DHT22;66927;48.812;9.118;2023-04-03T03:39:32;4.50;99.90
12827;DHT22;66927;48.812;9.118;2023-04-03T03:41:58;4.70;99.90
12827;DHT22;66927;48.812;9.118;2023-04-03T03:44:24;4.60;99.90
12827;DHT22;66927;48.812;9.118;2023-04-03T03:46:49;4.70;99.90
12827;DHT22;66927;48.812;9.118;2023-04-03T03:49:15;4.70;99.90
12827;DHT22;66927;48.812;9.118;2023-04-03T03:51:40;4.70;99.90
12827;DHT22;66927;48.812;9.118;2023-04-03T03:54:06;4.60;99.90
12827;DHT22;66927;48.812;9.118;2023-04-03T03:56:33;4.70;99.90
12827;DHT22;66927;48.812;9.118;2023-04-03T03:58:59;4.60;99.90
12827;DHT22;66927;48.812;9.118;2023-04-03T04:01:25;4.70;99.90
12827;DHT22;66927;48.812;9.118;2023-04-03T04:03:50;4.50;99.90
12827;DHT22;66927;48.812;9.118;2023-04-03T04:06:16;4.60;99.90
12827;DHT22;66927;48.812;9.118;2023-04-03T04:08:42;4.70;99.90
12827;DHT22;66927;48.812;9.118;2023-04-03T04:11:08;4.60;99.90
12827;DHT22;66927;48.812;9.118;2023-04-03T04:13:34;4.60;99.90
12827;DHT22;66927;48.812;9.118;2023-04-03T04:16:00;4.60;99.90
12827;DHT22;66927;48.812;9.118;2023-04-03T04:18:25;4.60;99.90
12827;DHT22;66927;48.812;9.118;2023-04-03T04:20:51;4.60;99.90
12827;DHT22;66927;48.812;9.118;2023-04-03T04:23:18;4.50;99.90
12827;DHT22;66927;48.812;9.118;2023-04-03T04:25:47;4.60;99.90
12827;DHT22;66927;48.812;9.118;2023-04-03T04:28:13;4.60;99.90
12827;DHT22;66927;48.812;9.118;2023-04-03T04:30:39;4.60;99.90
12827;DHT22;66927;48.812;9.118;2023-04-03T04:33:05;4.70;99.90
12827;DHT22;66927;48.812;9.118;2023-04-03T04:35:32;4.60;99.90
12827;DHT22;66927;48.812;9.118;2023-04-03T04:37:57;4.60;99.90
12827;DHT22;66927;48.812;9.118;2023-04-03T04:40:23;4.60;99.90
12827;DHT22;66927;48.812;9.118;2023-04-03T04:42:49;4.50;99.90
12827;DHT22;66927;48.812;9.118;2023-04-03T04:45:15;4.50;99.90
12827;DHT22;66927;48.812;9.118;2023-04-03T04:47:41;4.60;99.90
12827;DHT22;66927;48.812;9.118;2023-04-03T04:50:07;4.70;99.90
12827;DHT22;66927;48.812;9.118;2023-04-03T04:52:33;4.60;99.90
12827;DHT22;66927;48.812;9.118;2023-04-03T04:54:58;4.50;99.90
12827;DHT22;66927;48.812;9.118;2023-04-03T04:57:24;4.60;99.90
12827;DHT22;66927;48.812;9.118;2023-04-03T04:59:49;4.40;99.90
12827;DHT22;66927;48.812;9.118;2023-04-03T05:02:15;4.40;99.90
12827;DHT22;66927;48.812;9.118;2023-04-03T05:04:41;4.40;99.90
12827;DHT22;66927;48.812;9.118;2023-04-03T05:07:06;4.50;99.90
12827;DHT22;66927;48.812;9.118;2023-04-03T05:09:32;4.40;99.90
12827;DHT22;66927;48.812;9.118;2023-04-03T05:11:58;4.40;99.90
12827;DHT22;66927;48.812;9.118;2023-04-03T05:14:23;4.50;99.90
12827;DHT22;66927;48.812;9.118;2023-04-03T05:16:49;4.70;99.90
12827;DHT22;66927;48.812;9.118;2023-04-03T05:19:18;4.70;99.90
12827;DHT22;66927;48.812;9.118;2023-04-03T05:21:44;4.60;99.90
12827;DHT22;66927;48.812;9.118;2023-04-03T05:24:10;4.50;99.90
12827;DHT22;66927;48.812;9.118;2023-04-03T05:26:36;4.50;99.90
12827;DHT22;66927;48.812;9.118;2023-04-03T05:29:02;4.60;99.90
12827;DHT22;66927;48.812;9.118;2023-04-03T05:31:27;4.60;99.90
12827;DHT22;66927;48.812;9.118;2023-04-03T05:33:54;4.60;99.90
12827;DHT22;66927;48.812;9.118;2023-04-03T05:36:20;4.60;99.90
12827;DHT22;66927;48.812;9.118;2023-04-03T05:38:46;4.70;99.90
12827;DHT22;66927;48.812;9.118;2023-04-03T05:41:12;4.80;99.90
12827;DHT22;66927;48.812;9.118;2023-04-03T05:43:37;4.70;99.90
12827;DHT22;66927;48.812;9.118;2023-04-03T05:46:08;5.00;99.90
12827;DHT22;66927;48.812;9.118;2023-04-03T05:48:33;4.80;99.90
12827;DHT22;66927;48.812;9.118;2023-04-03T05:50:59;4.80;99.90
12827;DHT22;66927;48.812;9.118;2023-04-03T05:53:28;4.70;99.90
12827;DHT22;66927;48.812;9.118;2023-04-03T05:55:54;4.80;99.90
12827;DHT22;66927;48.812;9.118;2023-04-03T05:58:20;4.80;99.90
12827;DHT22;66927;48.812;9.118;2023-04-03T06:00:46;4.80;99.90
12827;DHT22;66927;48.812;9.118;2023-04-03T06:03:11;4.90;99.90
12827;DHT22;66927;48.812;9.118;2023-04-03T06:05:37;5.00;99.90
12827;DHT22;66927;48.812;9.118;2023-04-03T06:08:03;4.90;99.90
12827;DHT22;66927;48.812;9.118;2023-04-03T06:10:29;5.00;99.90
12827;DHT22;66927;48.812;9.118;2023-04-03T06:12:54;4.90;99.90
12827;DHT22;66927;48.812;9.118;2023-04-03T06:15:20;4.90;99.90
12827;DHT22;66927;48.812;9.118;2023-04-03T06:17:46;4.90;99.90
12827;DHT22;66927;48.812;9.118;2023-04-03T06:20:12;5.10;99.90
12827;DHT22;66927;48.812;9.118;2023-04-03T06:22:37;5.10;99.90
12827;DHT22;66927;48.812;9.118;2023-04-03T06:25:03;5.10;99.90
12827;DHT22;66927;48.812;9.118;2023-04-03T06:27:30;5.10;99.90
12827;DHT22;66927;48.812;9.118;2023-04-03T06:29:55;5.30;99.90
12827;DHT22;66927;48.812;9.118;2023-04-03T06:32:21;5.30;99.90
12827;DHT22;66927;48.812;9.118;2023-04-03T06:34:47;5.30;99.90
12827;DHT22;66927;48.812;9.118;2023-04-03T06:37:18;5.30;99.90
12827;DHT22;66927;48.812;9.118;2023-04-03T06:39:44;5.30;99.90
12827;DHT22;66927;48.812;9.118;2023-04-03T06:42:10;5.30;99.90
12827;DHT22;66927;48.812;9.118;2023-04-03T06:44:36;5.40;99.90
12827;DHT22;66927;48.812;9.118;2023-04-03T06:47:02;5.40;99.90
12827;DHT22;66927;48.812;9.118;2023-04-03T06:49:28;5.50;99.90
12827;DHT22;66927;48.812;9.118;2023-04-03T06:51:54;5.50;99.90
12827;DHT22;66927;48.812;9.118;2023-04-03T06:54:21;5.50;99.90
12827;DHT22;66927;48.812;9.118;2023-04-03T06:56:47;5.60;99.90
12827;DHT22;66927;48.812;9.118;2023-04-03T06:59:13;5.80;99.90
12827;DHT22;66927;48.812;9.118;2023-04-03T07:01:40;5.70;99.90
12827;DHT22;66927;48.812;9.118;2023-04-03T07:04:07;5.80;99.90
12827;DHT22;66927;48.812;9.118;2023-04-03T07:06:33;5.70;99.90
12827;DHT22;66927;48.812;9.118;2023-04-03T07:08:59;5.50;99.90
12827;DHT22;66927;48.812;9.118;2023-04-03T07:11:25;5.70;99.90
12827;DHT22;66927;48.812;9.118;2023-04-03T07:13:52;5.70;99.90
12827;DHT22;66927;48.812;9.118;2023-04-03T07:16:18;5.70;99.90
12827;DHT22;66927;48.812;9.118;2023-04-03T07:18:44;5.70;99.90
12827;DHT22;66927;48.812;9.118;2023-04-03T07:21:10;5.80;99.90
12827;DHT22;66927;48.812;9.118;2023-04-03T07:23:36;5.80;99.90
12827;DHT22;66927;48.812;9.118;2023-04-03T07:26:02;5.90;99.90
12827;DHT22;66927;48.812;9.118;2023-04-03T07:28:27;6.00;99.90
12827;DHT22;66927;48.812;9.118;2023-04-03T07:31:00;6.10;99.90
12827;DHT22;66927;48.812;9.118;2023-04-03T07:33:26;6.40;99.90
12827;DHT22;66927;48.812;9.118;2023-04-03T07:35:52;6.40;99.90
12827;DHT22;66927;48.812;9.118;2023-04-03T07:38:17;6.50;99.90
12827;DHT22;66927;48.812;9.118;2023-04-03T07:40:50;6.50;99.90
12827;DHT22;66927;48.812;9.118;2023-04-03T07:43:18;6.60;99.90
12827;DHT22;66927;48.812;9.118;2023-04-03T07:45:44;6.60;99.90
12827;DHT22;66927;48.812;9.118;2023-04-03T07:48:11;6.70;99.90
12827;DHT22;66927;48.812;9.118;2023-04-03T07:50:36;6.80;99.90
12827;DHT22;66927;48.812;9.118;2023-04-03T07:53:03;6.90;99.90
12827;DHT22;66927;48.812;9.118;2023-04-03T07:55:28;6.90;99.90
12827;DHT22;66927;48.812;9.118;2023-04-03T07:57:54;7.10;99.90
12827;DHT22;66927;48.812;9.118;2023-04-03T08:00:21;7.00;99.90
12827;DHT22;66927;48.812;9.118;2023-04-03T08:02:46;7.10;99.90
12827;DHT22;66927;48.812;9.118;2023-04-03T08:05:19;7.10;99.90
12827;DHT22;66927;48.812;9.118;2023-04-03T08:07:45;7.20;99.90
12827;DHT22;66927;48.812;9.118;2023-04-03T08:10:11;7.20;99.90
12827;DHT22;66927;48.812;9.118;2023-04-03T08:12:36;7.20;99.90
12827;DHT22;66927;48.812;9.118;2023-04-03T08:15:03;7.30;99.90
12827;DHT22;66927;48.812;9.118;2023-04-03T08:17:28;7.30;99.90
12827;DHT22;66927;48.812;9.118;2023-04-03T08:19:55;7.30;99.90
12827;DHT22;66927;48.812;9.118;2023-04-03T08:22:20;7.30;99.90
12827;DHT22;66927;48.812;9.118;2023-04-03T08:24:46;7.40;99.90
12827;DHT22;66927;48.812;9.118;2023-04-03T08:27:12;7.50;99.90
12827;DHT22;66927;48.812;9.118;2023-04-03T08:29:38;7.60;99.90
12827;DHT22;66927;48.812;9.118;2023-04-03T08:32:04;7.70;99.90
12827;DHT22;66927;48.812;9.118;2023-04-03T08:34:30;7.80;99.90
12827;DHT22;66927;48.812;9.118;2023-04-03T08:36:56;7.90;99.90
12827;DHT22;66927;48.812;9.118;2023-04-03T08:39:21;8.00;99.90
12827;DHT22;66927;48.812;9.118;2023-04-03T08:41:47;8.10;99.90
12827;DHT22;66927;48.812;9.118;2023-04-03T08:49:49;8.30;99.90
12827;DHT22;66927;48.812;9.118;2023-04-03T08:52:28;8.40;99.90
12827;DHT22;66927;48.812;9.118;2023-04-03T08:55:00;8.50;99.90
12827;DHT22;66927;48.812;9.118;2023-04-03T08:57:31;8.70;99.90
12827;DHT22;66927;48.812;9.118;2023-04-03T09:00:20;8.70;99.80
12827;DHT22;66927;48.812;9.118;2023-04-03T09:02:48;8.70;99.40
12827;DHT22;66927;48.812;9.118;2023-04-03T09:10:43;8.60;99.10
12827;DHT22;66927;48.812;9.118;2023-04-03T09:15:44;8.40;99.40
12827;DHT22;66927;48.812;9.118;2023-04-03T09:26:13;8.60;99.20
12827;DHT22;66927;48.812;9.118;2023-04-03T09:28:40;8.60;99.10
12827;DHT22;66927;48.812;9.118;2023-04-03T09:31:21;8.60;98.60
12827;DHT22;66927;48.812;9.118;2023-04-03T09:33:54;8.40;98.80
12827;DHT22;66927;48.812;9.118;2023-04-03T09:37:00;8.40;98.80
12827;DHT22;66927;48.812;9.118;2023-04-03T09:39:32;8.30;98.60
12827;DHT22;66927;48.812;9.118;2023-04-03T09:44:33;8.10;98.80
12827;DHT22;66927;48.812;9.118;2023-04-03T09:46:59;8.00;99.10
12827;DHT22;66927;48.812;9.118;2023-04-03T09:49:25;8.00;99.10
12827;DHT22;66927;48.812;9.118;2023-04-03T09:51:51;8.00;98.50
12827;DHT22;66927;48.812;9.118;2023-04-03T09:54:32;8.00;99.00
12827;DHT22;66927;48.812;9.118;2023-04-03T09:57:07;8.00;99.50
12827;DHT22;66927;48.812;9.118;2023-04-03T09:59:33;8.10;99.30
12827;DHT22;66927;48.812;9.118;2023-04-03T10:04:24;8.20;99.10
12827;DHT22;66927;48.812;9.118;2023-04-03T10:06:53;8.20;99.00
12827;DHT22;66927;48.812;9.118;2023-04-03T10:09:21;8.20;98.80
12827;DHT22;66927;48.812;9.118;2023-04-03T10:12:10;8.20;98.60
12827;DHT22;66927;48.812;9.118;2023-04-03T10:14:56;8.30;98.10
12827;DHT22;66927;48.812;9.118;2023-04-03T10:20:27;8.40;98.00
12827;DHT22;66927;48.812;9.118;2023-04-03T10:26:20;8.50;97.90
12827;DHT22;66927;48.812;9.118;2023-04-03T10:31:25;8.90;97.30
12827;DHT22;66927;48.812;9.118;2023-04-03T10:34:05;9.10;97.30
12827;DHT22;66927;48.812;9.118;2023-04-03T10:42:04;9.40;96.50
12827;DHT22;66927;48.812;9.118;2023-04-03T10:50:02;8.80;96.50
12827;DHT22;66927;48.812;9.118;2023-04-03T10:52:37;8.70;96.90
12827;DHT22;66927;48.812;9.118;2023-04-03T10:55:36;8.50;97.00
12827;DHT22;66927;48.812;9.118;2023-04-03T10:58:03;8.50;97.40
12827;DHT22;66927;48.812;9.118;2023-04-03T11:00:39;8.40;97.50
12827;DHT22;66927;48.812;9.118;2023-04-03T11:03:15;8.40;97.10
12827;DHT22;66927;48.812;9.118;2023-04-03T11:05:47;8.30;96.70
12827;DHT22;66927;48.812;9.118;2023-04-03T11:08:26;8.10;96.80
12827;DHT22;66927;48.812;9.118;2023-04-03T11:10:58;8.00;97.00
12827;DHT22;66927;48.812;9.118;2023-04-03T11:15:54;8.00;96.50
12827;DHT22;66927;48.812;9.118;2023-04-03T11:18:46;8.10;96.70
12827;DHT22;66927;48.812;9.118;2023-04-03T11:21:28;8.20;96.20
12827;DHT22;66927;48.812;9.118;2023-04-03T11:23:57;8.40;96.20
12827;DHT22;66927;48.812;9.118;2023-04-03T11:26:27;8.50;96.20
12827;DHT22;66927;48.812;9.118;2023-04-03T11:29:06;8.60;95.90
12827;DHT22;66927;48.812;9.118;2023-04-03T11:34:36;8.50;95.20
12827;DHT22;66927;48.812;9.118;2023-04-03T11:37:47;8.40;95.10
12827;DHT22;66927;48.812;9.118;2023-04-03T11:43:03;8.10;95.20
12827;DHT22;66927;48.812;9.118;2023-04-03T11:45:40;8.10;95.60
12827;DHT22;66927;48.812;9.118;2023-04-03T11:50:45;8.10;95.90
12827;DHT22;66927;48.812;9.118;2023-04-03T11:55:44;8.30;95.60
12827;DHT22;66927;48.812;9.118;2023-04-03T11:58:13;8.40;95.20
12827;DHT22;66927;48.812;9.118;2023-04-03T12:19:01;9.40;93.20
12827;DHT22;66927;48.812;9.118;2023-04-03T12:43:13;9.50;92.30
12827;DHT22;66927;48.812;9.118;2023-04-03T12:48:26;9.80;91.70
12827;DHT22;66927;48.812;9.118;2023-04-03T12:50:55;9.80;91.10
12827;DHT22;66927;48.812;9.118;2023-04-03T12:53:25;9.80;91.70
12827;DHT22;66927;48.812;9.118;2023-04-03T12:55:56;9.70;91.60
12827;DHT22;66927;48.812;9.118;2023-04-03T12:58:26;9.50;91.70
12827;DHT22;66927;48.812;9.118;2023-04-03T13:01:12;9.60;91.40
12827;DHT22;66927;48.812;9.118;2023-04-03T13:03:43;9.40;92.00
12827;DHT22;66927;48.812;9.118;2023-04-03T13:06:42;9.40;92.30
12827;DHT22;66927;48.812;9.118;2023-04-03T13:09:29;9.50;91.80
12827;DHT22;66927;48.812;9.118;2023-04-03T13:12:03;9.50;91.90
12827;DHT22;66927;48.812;9.118;2023-04-03T13:14:29;9.50;91.40
12827;DHT22;66927;48.812;9.118;2023-04-03T13:16:58;9.40;91.30
12827;DHT22;66927;48.812;9.118;2023-04-03T13:19:26;9.40;91.50
12827;DHT22;66927;48.812;9.118;2023-04-03T13:22:06;9.40;91.80
12827;DHT22;66927;48.812;9.118;2023-04-03T13:24:36;9.60;91.90
12827;DHT22;66927;48.812;9.118;2023-04-03T13:27:04;10.00;91.30
12827;DHT22;66927;48.812;9.118;2023-04-03T13:29:36;10.30;90.90
12827;DHT22;66927;48.812;9.118;2023-04-03T13:32:04;10.40;90.50
12827;DHT22;66927;48.812;9.118;2023-04-03T13:34:40;10.50;89.70
12827;DHT22;66927;48.812;9.118;2023-04-03T13:37:11;10.50;90.20
12827;DHT22;66927;48.812;9.118;2023-04-03T13:39:45;10.50;90.40
12827;DHT22;66927;48.812;9.118;2023-04-03T13:42:31;10.50;90.40
12827;DHT22;66927;48.812;9.118;2023-04-03T13:45:18;10.50;90.00
12827;DHT22;66927;48.812;9.118;2023-04-03T13:47:46;10.50;89.50
12827;DHT22;66927;48.812;9.118;2023-04-03T13:53:08;10.40;87.70
12827;DHT22;66927;48.812;9.118;2023-04-03T13:55:50;10.30;87.70
12827;DHT22;66927;48.812;9.118;2023-04-03T13:58:22;10.30;88.00
12827;DHT22;66927;48.812;9.118;2023-04-03T14:01:34;10.30;88.30
12827;DHT22;66927;48.812;9.118;2023-04-03T14:06:16;10.70;85.40
12827;DHT22;66927;48.812;9.118;2023-04-03T14:08:42;10.60;84.80
12827;DHT22;66927;48.812;9.118;2023-04-03T14:13:43;10.70;85.90
12827;DHT22;66927;48.812;9.118;2023-04-03T14:16:14;10.50;86.50
12827;DHT22;66927;48.812;9.118;2023-04-03T14:18:40;10.40;85.90
12827;DHT22;66927;48.812;9.118;2023-04-03T14:21:06;10.20;86.80
12827;DHT22;66927;48.812;9.118;2023-04-03T14:23:31;10.00;88.50
12827;DHT22;66927;48.812;9.118;2023-04-03T14:25:58;9.90;88.00
12827;DHT22;66927;48.812;9.118;2023-04-03T14:28:25;9.90;88.30
12827;DHT22;66927;48.812;9.118;2023-04-03T14:30:51;9.90;85.70
12827;DHT22;66927;48.812;9.118;2023-04-03T14:33:20;9.80;87.50
12827;DHT22;66927;48.812;9.118;2023-04-03T14:35:47;9.70;85.00
12827;DHT22;66927;48.812;9.118;2023-04-03T14:38:28;9.50;85.20
12827;DHT22;66927;48.812;9.118;2023-04-03T14:40:54;9.40;84.00
12827;DHT22;66927;48.812;9.118;2023-04-03T14:43:22;9.50;84.70
12827;DHT22;66927;48.812;9.118;2023-04-03T14:45:49;9.70;84.80
12827;DHT22;66927;48.812;9.118;2023-04-03T14:48:23;10.00;84.30
12827;DHT22;66927;48.812;9.118;2023-04-03T14:50:50;10.10;84.90
12827;DHT22;66927;48.812;9.118;2023-04-03T14:53:17;10.10;84.30
12827;DHT22;66927;48.812;9.118;2023-04-03T14:55:47;10.50;83.10
12827;DHT22;66927;48.812;9.118;2023-04-03T14:58:15;12.80;80.00
12827;DHT22;66927;48.812;9.118;2023-04-03T15:00:42;15.10;75.40
12827;DHT22;66927;48.812;9.118;2023-04-03T15:03:20;16.80;66.80
12827;DHT22;66927;48.812;9.118;2023-04-03T15:05:47;17.20;61.90
12827;DHT22;66927;48.812;9.118;2023-04-03T15:10:45;16.10;62.20
12827;DHT22;66927;48.812;9.118;2023-04-03T15:13:12;15.20;64.40
12827;DHT22;66927;48.812;9.118;2023-04-03T15:15:38;14.40;64.30
12827;DHT22;66927;48.812;9.118;2023-04-03T15:18:04;13.90;65.20
12827;DHT22;66927;48.812;9.118;2023-04-03T15:20:30;13.30;66.50
12827;DHT22;66927;48.812;9.118;2023-04-03T15:22:59;12.80;68.40
12827;DHT22;66927;48.812;9.118;2023-04-03T15:25:26;12.40;69.80
12827;DHT22;66927;48.812;9.118;2023-04-03T15:27:53;12.20;69.90
12827;DHT22;66927;48.812;9.118;2023-04-03T15:30:19;12.00;70.40
12827;DHT22;66927;48.812;9.118;2023-04-03T15:32:46;12.00;71.20
12827;DHT22;66927;48.812;9.118;2023-04-03T15:35:12;12.60;71.00
12827;DHT22;66927;48.812;9.118;2023-04-03T15:37:38;13.20;67.90
12827;DHT22;66927;48.812;9.118;2023-04-03T15:40:05;13.60;67.30
12827;DHT22;66927;48.812;9.118;2023-04-03T15:42:31;13.60;67.00
12827;DHT22;66927;48.812;9.118;2023-04-03T15:44:56;13.20;67.30
12827;DHT22;66927;48.812;9.118;2023-04-03T15:47:22;12.70;68.00
12827;DHT22;66927;48.812;9.118;2023-04-03T15:49:49;12.20;68.90
12827;DHT22;66927;48.812;9.118;2023-04-03T15:52:15;11.50;70.20
12827;DHT22;66927;48.812;9.118;2023-04-03T15:54:40;11.40;70.80
12827;DHT22;66927;48.812;9.118;2023-04-03T15:57:08;13.00;69.20
12827;DHT22;66927;48.812;9.118;2023-04-03T15:59:33;15.00;63.10
12827;DHT22;66927;48.812;9.118;2023-04-03T16:02:01;16.90;58.90
12827;DHT22;66927;48.812;9.118;2023-04-03T16:04:27;18.70;56.50
12827;DHT22;66927;48.812;9.118;2023-04-03T16:06:53;20.10;53.50
12827;DHT22;66927;48.812;9.118;2023-04-03T16:09:19;21.10;50.10
12827;DHT22;66927;48.812;9.118;2023-04-03T16:11:45;21.70;48.10
12827;DHT22;66927;48.812;9.118;2023-04-03T16:14:12;22.30;46.90
12827;DHT22;66927;48.812;9.118;2023-04-03T16:16:38;22.50;45.90
12827;DHT22;66927;48.812;9.118;2023-04-03T16:19:04;21.80;45.90
12827;DHT22;66927;48.812;9.118;2023-04-03T16:21:31;21.60;46.50
12827;DHT22;66927;48.812;9.118;2023-04-03T16:23:58;20.80;46.80
12827;DHT22;66927;48.812;9.118;2023-04-03T16:26:24;19.60;48.20
12827;DHT22;66927;48.812;9.118;2023-04-03T16:28:50;18.30;49.90
12827;DHT22;66927;48.812;9.118;2023-04-03T16:31:16;16.50;51.80
12827;DHT22;66927;48.812;9.118;2023-04-03T16:33:42;15.10;53.80
12827;DHT22;66927;48.812;9.118;2023-04-03T16:36:08;14.00;55.30
12827;DHT22;66927;48.812;9.118;2023-04-03T16:38:35;13.10;58.20
12827;DHT22;66927;48.812;9.118;2023-04-03T16:41:01;12.30;59.40
12827;DHT22;66927;48.812;9.118;2023-04-03T16:43:30;11.60;60.00
12827;DHT22;66927;48.812;9.118;2023-04-03T16:45:56;11.10;63.40
12827;DHT22;66927;48.812;9.118;2023-04-03T16:48:22;10.60;65.20
12827;DHT22;66927;48.812;9.118;2023-04-03T16:50:48;10.30;66.50
12827;DHT22;66927;48.812;9.118;2023-04-03T16:53:17;10.00;67.30
12827;DHT22;66927;48.812;9.118;2023-04-03T16:55:43;9.80;67.50
12827;DHT22;66927;48.812;9.118;2023-04-03T16:58:08;9.60;68.10
12827;DHT22;66927;48.812;9.118;2023-04-03T17:00:35;9.50;68.90
12827;DHT22;66927;48.812;9.118;2023-04-03T17:03:01;9.50;68.40
12827;DHT22;66927;48.812;9.118;2023-04-03T17:05:27;9.30;67.70
12827;DHT22;66927;48.812;9.118;2023-04-03T17:07:53;9.20;68.90
12827;DHT22;66927;48.812;9.118;2023-04-03T17:10:18;9.10;68.90
12827;DHT22;66927;48.812;9.118;2023-04-03T17:12:44;9.00;69.70
12827;DHT22;66927;48.812;9.118;2023-04-03T17:15:10;8.90;70.10
12827;DHT22;66927;48.812;9.118;2023-04-03T17:17:36;8.80;70.30
12827;DHT22;66927;48.812;9.118;2023-04-03T17:20:02;8.70;71.10
12827;DHT22;66927;48.812;9.118;2023-04-03T17:22:28;8.60;71.20
12827;DHT22;66927;48.812;9.118;2023-04-03T17:24:54;8.50;71.50
12827;DHT22;66927;48.812;9.118;2023-04-03T17:27:20;8.40;72.80
12827;DHT22;66927;48.812;9.118;2023-04-03T17:29:46;8.40;73.20
12827;DHT22;66927;48.812;9.118;2023-04-03T17:32:11;8.30;73.60
12827;DHT22;66927;48.812;9.118;2023-04-03T17:34:37;8.20;73.50
12827;DHT22;66927;48.812;9.118;2023-04-03T17:37:03;8.10;74.50
12827;DHT22;66927;48.812;9.118;2023-04-03T17:39:29;7.90;74.70
12827;DHT22;66927;48.812;9.118;2023-04-03T17:41:54;8.00;75.20
12827;DHT22;66927;48.812;9.118;2023-04-03T17:44:21;7.70;76.80
12827;DHT22;66927;48.812;9.118;2023-04-03T17:46:46;7.50;76.00
12827;DHT22;66927;48.812;9.118;2023-04-03T17:49:12;7.60;77.10